Terminal Aerodrome Forecast
Issued by NWS

Home | Current Version | Previous Version | Text Only | Print | Product List | Glossary On
Versions: 1 2 3 4 5 6 7 8 9 10 11 12 13 14 15 16 17 18 19 20
000
FTUS43 KILX 291133
TAFBMI
TAF
KBMI 291133Z 2912/3012 17009KT 3SM BR SCT040 BKN070
     FM291400 18008KT P6SM VCTS SCT035 BKN050CB
     FM291800 19012KT P6SM BKN035
     FM292300 20015KT P6SM VCTS BKN040CB
     FM300300 22010KT 6SM -SHRA VCTS OVC035CB
     FM300700 21006KT P6SM VCSH OVC025=

USA.gov is the U.S. government's official web portal to all federal, state and local government web resources and services.